createdAt,value
2019-04-23T00:00:56.429Z,40.50
2019-04-23T00:03:30.653Z,39.27
2019-04-23T00:05:59.935Z,40.17
2019-04-23T00:08:29.176Z,39.30
2019-04-23T00:10:58.497Z,39.27
2019-04-23T00:13:30.447Z,39.67
2019-04-23T00:16:21.099Z,38.67
2019-04-23T00:18:42.589Z,37.73
2019-04-23T00:21:31.855Z,35.37
2019-04-23T00:24:01.483Z,36.93
2019-04-23T00:29:01.031Z,37.10
2019-04-23T00:31:29.605Z,35.13
2019-04-23T00:33:56.815Z,36.60
2019-04-23T00:36:32.509Z,35.67
2019-04-23T00:38:55.793Z,35.40
2019-04-23T00:41:33.430Z,36.00
2019-04-23T00:46:29.675Z,37.10
2019-04-23T00:51:34.732Z,36.73
2019-04-23T00:53:56.613Z,35.20
2019-04-23T00:56:38.582Z,35.67
2019-04-23T00:59:01.330Z,33.37
2019-04-23T01:01:36.859Z,36.30
2019-04-23T01:03:58.265Z,34.23
2019-04-23T01:06:29.046Z,34.00
2019-04-23T01:09:06.834Z,35.73
2019-04-23T01:11:46.698Z,35.67
2019-04-23T01:14:03.979Z,34.43
2019-04-23T01:16:28.733Z,35.03
2019-04-23T01:18:59.597Z,34.07
2019-04-23T01:21:18.182Z,37.37
2019-04-23T01:24:00.282Z,39.10
2019-04-23T01:26:50.051Z,39.67
2019-04-23T01:29:20.219Z,40.83
2019-04-23T01:31:54.828Z,41.10
2019-04-23T01:34:26.037Z,40.53
2019-04-23T01:36:51.577Z,42.30
2019-04-23T01:39:22.816Z,44.63
2019-04-23T01:41:55.591Z,43.20
2019-04-23T01:44:33.425Z,45.80
2019-04-23T01:46:54.511Z,43.40
2019-04-23T01:49:31.179Z,44.87
2019-04-23T01:54:27.230Z,44.47
2019-04-23T01:56:56.713Z,44.90
2019-04-23T01:59:26.318Z,44.10
2019-04-23T02:02:01.406Z,44.10
2019-04-23T02:04:28.525Z,45.13
2019-04-23T02:07:01.193Z,44.87
2019-04-23T02:09:37.259Z,44.23
2019-04-23T02:11:59.178Z,43.50
2019-04-23T02:14:37.550Z,43.30
2019-04-23T02:17:08.048Z,43.47
2019-04-23T02:19:44.733Z,42.60
2019-04-23T02:22:03.637Z,42.73
2019-04-23T02:24:41.286Z,40.60
2019-04-23T02:27:15.189Z,42.27
2019-04-23T02:32:10.982Z,40.60
2019-04-23T02:34:51.231Z,40.83
2019-04-23T02:37:24.448Z,41.53
2019-04-23T02:40:11.395Z,40.80
2019-04-23T02:42:30.715Z,41.83
2019-04-23T02:44:48.946Z,39.53
2019-04-23T02:47:36.956Z,41.20
2019-04-23T02:49:54.418Z,41.10
2019-04-23T02:52:26.385Z,40.30
2019-04-23T02:54:50.432Z,39.80
2019-04-23T02:57:13.422Z,40.83
2019-04-23T03:00:08.061Z,40.63
2019-04-23T03:02:37.100Z,39.23
2019-04-23T03:04:52.238Z,40.67
2019-04-23T03:07:40.911Z,40.37
2019-04-23T03:09:56.572Z,39.73
2019-04-23T03:12:25.028Z,38.83
2019-04-23T03:15:00.802Z,39.23
2019-04-23T03:17:20.804Z,36.87
2019-04-23T03:20:07.951Z,39.20
2019-04-23T03:25:23.494Z,38.17
2019-04-23T03:27:41.949Z,38.17
2019-04-23T03:34:20.826Z,36.30
2019-04-23T03:35:36.146Z,37.33
2019-04-23T03:37:46.417Z,40.37
2019-04-23T03:43:02.392Z,39.37
2019-04-23T03:47:54.411Z,40.07
2019-04-23T03:50:23.356Z,38.83
2019-04-23T03:55:28.069Z,38.43
2019-04-23T03:57:43.377Z,37.37
2019-04-23T04:00:33.224Z,36.33
2019-04-23T04:03:00.770Z,38.00
2019-04-23T04:05:32.896Z,36.90
2019-04-23T04:08:04.928Z,37.20
2019-04-23T04:10:41.629Z,36.70
2019-04-23T04:13:01.415Z,35.30
2019-04-23T04:18:11.801Z,34.43
2019-04-23T04:20:44.072Z,33.40
2019-04-23T04:25:33.602Z,34.50
2019-04-23T04:28:11.547Z,34.43
2019-04-23T04:30:40.981Z,35.60
2019-04-23T04:33:04.981Z,34.17
2019-04-23T04:35:48.722Z,36.03
2019-04-23T04:38:15.589Z,34.60
2019-04-23T04:40:38.035Z,35.67
2019-04-23T04:43:16.051Z,34.63
2019-04-23T04:48:14.090Z,35.57
2019-04-23T05:01:08.441Z,33.63
2019-04-23T05:03:29.138Z,32.53
2019-04-23T05:08:38.311Z,31.87
2019-04-23T05:11:09.159Z,30.80
2019-04-23T05:16:07.969Z,29.83
2019-04-23T05:21:10.387Z,27.43
2019-04-23T05:23:45.847Z,28.00
2019-04-23T05:26:15.549Z,29.67
2019-04-23T05:28:50.519Z,28.37
2019-04-23T05:31:27.655Z,28.00
2019-04-23T05:34:04.487Z,25.63
2019-04-23T05:36:37.829Z,28.30
2019-04-23T05:41:34.822Z,24.53
2019-04-23T05:44:10.481Z,25.33
2019-04-23T05:49:09.226Z,24.77
2019-04-23T05:51:46.409Z,24.67
2019-04-23T05:54:09.172Z,22.63
2019-04-23T06:04:32.746Z,20.50
2019-04-23T06:07:15.121Z,21.10
2019-04-23T06:09:31.376Z,20.80
2019-04-23T06:14:32.908Z,20.03
2019-04-23T06:17:09.256Z,19.67
2019-04-23T06:19:27.672Z,19.57
2019-04-23T06:29:31.908Z,19.17
2019-04-23T06:32:00.455Z,17.57
2019-04-23T06:34:46.986Z,19.77
2019-04-23T06:37:06.894Z,18.27
2019-04-23T06:42:08.180Z,18.03
2019-04-23T06:44:37.339Z,16.80
2019-04-23T06:47:07.000Z,17.17
2019-04-23T06:52:15.128Z,17.03
2019-04-23T06:55:02.996Z,16.83
2019-04-23T06:57:18.667Z,15.73
2019-04-23T06:59:41.266Z,16.40
2019-04-23T07:02:11.893Z,16.10
2019-04-23T07:04:50.007Z,15.80
2019-04-23T07:09:50.485Z,15.20
2019-04-23T07:12:15.430Z,15.37
2019-04-23T07:17:24.696Z,14.60
2019-04-23T07:24:51.023Z,14.87
2019-04-23T07:27:20.987Z,14.10
2019-04-23T07:32:15.150Z,13.83
2019-04-23T07:34:55.977Z,14.30
2019-04-23T07:37:18.948Z,14.00
2019-04-23T07:39:57.031Z,13.03
2019-04-23T07:42:34.411Z,13.47
2019-04-23T07:45:02.087Z,12.80
2019-04-23T07:47:51.948Z,12.37
2019-04-23T07:53:00.319Z,12.77
2019-04-23T07:55:27.008Z,13.80
2019-04-23T07:58:00.745Z,13.70
2019-04-23T08:00:29.638Z,12.90
2019-04-23T08:02:57.794Z,11.17
2019-04-23T08:05:22.848Z,11.27
2019-04-23T08:07:55.844Z,11.47
2019-04-23T08:10:21.454Z,12.10
2019-04-23T08:12:55.565Z,11.63
2019-04-23T08:15:24.975Z,11.90
2019-04-23T08:17:53.107Z,11.87
2019-04-23T08:20:29.931Z,11.33
2019-04-23T08:22:56.414Z,12.73
2019-04-23T08:25:34.217Z,11.17
2019-04-23T08:27:56.019Z,10.67
2019-04-23T08:30:32.255Z,10.43
2019-04-23T08:33:04.319Z,11.60
2019-04-23T08:35:33.984Z,10.60
2019-04-23T08:38:26.030Z,11.50
2019-04-23T08:40:33.573Z,11.47
2019-04-23T08:43:32.927Z,13.10
2019-04-23T08:45:52.824Z,13.10
2019-04-23T08:50:49.049Z,11.67
2019-04-23T08:53:37.387Z,12.73
2019-04-23T08:58:30.107Z,10.77
2019-04-23T09:01:05.540Z,11.33
2019-04-23T09:03:31.366Z,14.13
2019-04-23T09:08:33.181Z,11.60
2019-04-23T09:11:14.623Z,12.17
2019-04-23T09:16:16.273Z,10.17
2019-04-23T09:18:46.076Z,11.43
2019-04-23T09:21:03.592Z,11.07
2019-04-23T09:28:41.693Z,10.20
2019-04-23T09:31:39.647Z,10.80
2019-04-23T09:36:55.660Z,11.43
2019-04-23T09:39:28.945Z,10.30
2019-04-23T09:42:09.003Z,10.70
2019-04-23T09:44:58.193Z,10.33
2019-04-23T09:47:45.830Z,10.13
2019-04-23T09:50:15.841Z,10.23
2019-04-23T09:55:23.972Z,10.73
2019-04-23T09:57:52.306Z,10.30
2019-04-23T10:00:25.661Z,10.17
2019-04-23T10:02:41.212Z,10.83
2019-04-23T10:05:07.293Z,9.67
2019-04-23T10:07:34.970Z,9.10
2019-04-23T10:09:53.540Z,10.47
2019-04-23T10:12:24.287Z,10.63
2019-04-23T10:15:02.317Z,10.87
2019-04-23T10:17:24.368Z,9.90
2019-04-23T10:19:55.035Z,9.77
2019-04-23T10:22:25.016Z,11.43
2019-04-23T10:24:55.263Z,11.43
2019-04-23T10:27:25.151Z,11.43
2019-04-23T10:29:54.214Z,10.83
2019-04-23T10:32:23.197Z,10.23
2019-04-23T10:35:03.563Z,11.43
2019-04-23T10:37:34.568Z,10.27
2019-04-23T10:39:59.228Z,9.87
2019-04-23T10:42:25.643Z,10.73
2019-04-23T10:45:16.636Z,10.17
2019-04-23T10:48:30.914Z,10.37
2019-04-23T10:50:51.372Z,11.13
2019-04-23T10:55:54.105Z,10.63
2019-04-23T11:01:01.530Z,10.70
2019-04-23T11:08:33.666Z,9.97
2019-04-23T11:11:05.347Z,9.87
2019-04-23T11:16:39.463Z,10.33
2019-04-23T11:18:46.775Z,9.13
2019-04-23T11:21:14.880Z,10.17
2019-04-23T11:23:37.667Z,10.37
2019-04-23T11:26:19.912Z,9.73
2019-04-23T11:28:40.596Z,9.10
2019-04-23T11:31:12.642Z,9.97
2019-04-23T11:33:42.963Z,9.17
2019-04-23T11:38:54.385Z,10.63
2019-04-23T11:41:22.585Z,9.57
2019-04-23T11:43:46.380Z,9.73
2019-04-23T11:46:43.091Z,9.27
2019-04-23T11:53:57.018Z,9.13
2019-04-23T11:56:51.013Z,9.23
2019-04-23T11:58:59.658Z,10.13
2019-04-23T12:06:55.880Z,9.57
2019-04-23T12:09:35.272Z,10.57
2019-04-23T12:14:40.449Z,9.37
2019-04-23T12:18:01.053Z,9.30
2019-04-23T12:22:16.571Z,9.73
2019-04-23T12:25:12.211Z,8.77
2019-04-23T12:27:17.062Z,9.03
2019-04-23T12:37:41.101Z,8.43
2019-04-23T12:40:24.909Z,9.03
2019-04-23T12:45:20.626Z,8.03
2019-04-23T12:52:47.177Z,8.90
2019-04-23T12:57:47.308Z,9.27
2019-04-23T13:00:20.923Z,8.93
2019-04-23T13:05:26.011Z,9.40
2019-04-23T13:10:28.102Z,8.67
2019-04-23T13:13:04.558Z,9.53
2019-04-23T13:15:23.008Z,9.20
2019-04-23T13:17:57.326Z,9.03
2019-04-23T13:20:23.251Z,9.30
2019-04-23T13:22:59.704Z,9.30
2019-04-23T13:25:29.187Z,8.80
2019-04-23T13:28:03.612Z,9.23
2019-04-23T13:33:02.874Z,8.67
2019-04-23T13:37:59.028Z,8.77
2019-04-23T13:40:32.181Z,8.57
2019-04-23T13:43:01.006Z,9.10
2019-04-23T13:48:06.292Z,8.27
2019-04-23T13:55:32.294Z,9.23
2019-04-23T13:58:11.760Z,8.43
2019-04-23T14:03:03.194Z,8.77
2019-04-23T14:06:10.823Z,8.80
2019-04-23T14:08:22.813Z,8.37
2019-04-23T14:10:44.896Z,7.90
2019-04-23T14:20:53.045Z,8.18
2019-04-23T14:26:11.355Z,7.40
2019-04-23T14:28:28.760Z,7.65
2019-04-23T14:31:03.028Z,7.43
2019-04-23T14:33:43.253Z,6.77
2019-04-23T14:43:40.226Z,7.57
2019-04-23T14:48:47.971Z,7.07
2019-04-23T14:56:18.968Z,6.60
2019-04-23T14:58:57.908Z,6.50
2019-04-23T15:03:50.523Z,6.30
2019-04-23T15:06:36.084Z,6.20
2019-04-23T15:13:55.398Z,7.03
2019-04-23T15:28:49.101Z,7.13
2019-04-23T15:31:44.401Z,7.30
2019-04-23T15:39:19.171Z,7.20
2019-04-23T15:41:49.053Z,6.17
2019-04-23T15:44:14.817Z,7.17
2019-04-23T15:46:47.653Z,8.20
2019-04-23T15:51:56.637Z,7.87
2019-04-23T15:56:50.530Z,8.50
2019-04-23T15:59:24.637Z,7.30
2019-04-23T16:01:37.373Z,7.53
2019-04-23T16:03:49.074Z,7.57
2019-04-23T16:06:22.183Z,7.60
2019-04-23T16:09:39.886Z,9.80
2019-04-23T16:11:58.104Z,6.87
2019-04-23T16:14:22.719Z,8.93
2019-04-23T16:16:58.419Z,7.80
2019-04-23T16:19:23.656Z,7.90
2019-04-23T16:22:03.770Z,8.17
2019-04-23T16:24:19.544Z,7.77
2019-04-23T16:27:07.651Z,7.80
2019-04-23T16:29:36.963Z,8.80
2019-04-23T16:34:29.280Z,9.07
2019-04-23T16:36:59.509Z,9.00
2019-04-23T16:39:39.712Z,9.07
2019-04-23T16:42:17.634Z,8.70
2019-04-23T16:44:44.881Z,8.90
2019-04-23T16:47:23.170Z,9.30
2019-04-23T16:49:42.192Z,9.30
2019-04-23T16:52:20.041Z,9.13
2019-04-23T16:54:53.783Z,8.70
2019-04-23T16:59:46.851Z,7.37
2019-04-23T17:02:19.642Z,7.27
2019-04-23T17:04:53.013Z,7.27
2019-04-23T17:07:06.958Z,8.17
2019-04-23T17:09:54.741Z,7.67
2019-04-23T17:12:13.522Z,8.47
2019-04-23T17:14:41.340Z,8.33
2019-04-23T17:17:11.946Z,8.20
2019-04-23T17:19:47.096Z,7.67
2019-04-23T17:22:31.366Z,8.20
2019-04-23T17:24:56.174Z,8.60
2019-04-23T17:29:48.906Z,8.77
2019-04-23T17:32:14.926Z,8.13
2019-04-23T17:34:57.265Z,8.70
2019-04-23T17:40:15.873Z,7.97
2019-04-23T17:52:42.017Z,10.43
2019-04-23T17:55:13.392Z,10.00
2019-04-23T18:02:59.269Z,10.20
2019-04-23T18:05:11.126Z,9.03
2019-04-23T18:12:57.832Z,10.30
2019-04-23T18:15:12.079Z,10.30
2019-04-23T18:20:16.590Z,10.33
2019-04-23T18:22:56.847Z,10.37
2019-04-23T18:25:26.733Z,9.70
2019-04-23T18:30:26.404Z,9.53
2019-04-23T18:33:31.909Z,10.33
2019-04-23T18:35:24.374Z,10.17
2019-04-23T18:37:56.838Z,10.20
2019-04-23T18:40:28.756Z,9.50
2019-04-23T18:43:04.550Z,10.30
2019-04-23T18:45:41.673Z,10.23
2019-04-23T18:53:29.733Z,10.27
2019-04-23T18:56:05.508Z,9.87
2019-04-23T18:58:08.330Z,10.63
2019-04-23T19:01:00.078Z,11.43
2019-04-23T19:06:32.050Z,10.67
2019-04-23T19:14:24.568Z,10.47
2019-04-23T19:17:07.275Z,11.03
2019-04-23T19:19:19.312Z,12.40
2019-04-23T19:24:18.440Z,12.67
2019-04-23T19:29:21.287Z,11.83
2019-04-23T19:36:58.590Z,12.80
2019-04-23T19:39:29.491Z,12.27
2019-04-23T19:42:02.242Z,13.00
2019-04-23T19:44:26.866Z,13.00
2019-04-23T19:49:28.036Z,13.30
2019-04-23T19:54:39.238Z,14.57
2019-04-23T19:56:55.233Z,13.47
2019-04-23T19:59:39.557Z,14.20
2019-04-23T20:02:02.077Z,14.60
2019-04-23T20:04:38.712Z,14.63
2019-04-23T20:09:50.753Z,16.13
2019-04-23T20:12:00.333Z,15.87
2019-04-23T20:14:31.818Z,14.97
2019-04-23T20:19:41.323Z,16.13
2019-04-23T20:22:11.204Z,15.97
2019-04-23T20:24:40.830Z,17.53
2019-04-23T20:27:11.806Z,16.93
2019-04-23T20:29:50.839Z,16.27
2019-04-23T20:37:25.855Z,17.07
2019-04-23T20:39:55.110Z,17.30
2019-04-23T20:42:20.366Z,17.90
2019-04-23T20:44:57.153Z,17.63
2019-04-23T20:47:17.665Z,16.63
2019-04-23T20:49:50.451Z,16.97
2019-04-23T20:52:13.792Z,17.33
2019-04-23T20:57:39.214Z,18.30
2019-04-23T21:00:01.625Z,17.70
2019-04-23T21:02:52.125Z,19.13
2019-04-23T21:05:10.219Z,18.77
2019-04-23T21:07:49.181Z,18.37
2019-04-23T21:10:18.247Z,19.93
2019-04-23T21:12:58.154Z,19.87
2019-04-23T21:15:13.226Z,18.57
2019-04-23T21:20:19.668Z,20.03
2019-04-23T21:22:37.867Z,20.57
2019-04-23T21:25:08.191Z,20.53
2019-04-23T21:30:09.062Z,21.40
2019-04-23T21:32:53.463Z,21.37
2019-04-23T21:35:16.899Z,23.53
2019-04-23T21:43:35.886Z,25.27
2019-04-23T21:45:52.734Z,25.50
2019-04-23T21:53:58.722Z,26.43
2019-04-23T21:56:37.251Z,26.17
2019-04-23T21:59:10.408Z,27.70
2019-04-23T22:04:19.104Z,26.40
2019-04-23T22:06:43.486Z,27.77
2019-04-23T22:09:16.068Z,25.90
2019-04-23T22:14:09.884Z,24.47
2019-04-23T22:17:01.573Z,25.40
2019-04-23T22:21:54.473Z,24.43
2019-04-23T22:26:45.525Z,25.53
2019-04-23T22:29:18.794Z,24.40
2019-04-23T22:31:47.129Z,26.67
2019-04-23T22:34:21.803Z,25.33
2019-04-23T22:36:58.001Z,25.87
2019-04-23T22:39:27.657Z,26.40
2019-04-23T22:44:22.515Z,27.27
2019-04-23T22:46:56.413Z,28.53
2019-04-23T22:49:33.931Z,28.93
2019-04-23T22:52:10.758Z,29.67
2019-04-23T22:54:25.856Z,28.07
2019-04-23T23:01:59.236Z,27.43
2019-04-23T23:04:31.385Z,25.40
2019-04-23T23:07:03.253Z,26.67
2019-04-23T23:09:33.311Z,26.60
2019-04-23T23:17:02.259Z,27.93
2019-04-23T23:19:46.317Z,28.57
2019-04-23T23:24:38.971Z,27.83
2019-04-23T23:29:43.021Z,30.47
2019-04-23T23:32:07.767Z,30.77
2019-04-23T23:34:56.547Z,30.77
2019-04-23T23:37:07.167Z,30.63
2019-04-23T23:39:49.768Z,31.37
2019-04-23T23:42:09.732Z,30.57
2019-04-23T23:47:15.021Z,31.57
2019-04-23T23:52:12.959Z,31.10
2019-04-23T23:54:50.111Z,34.07
